Time;durP1;ratioP1;P1;durP2;ratioP2;P2;SDS_P1;SDS_P2;PMS_P1;PMS_P2;Temp;Humidity;BMP_temperature;BMP_pressure;BME280_temperature;BME280_humidity;BME280_pressure;Samples;Min_cycle;Max_cycle;Signal;HPM_P1;HPM_P2
2022/11/06 00:04:32;;;;;;;11.30;5.20;;;21.00;72.10;;;;;;215884;1279;23512;-58
2022/11/06 00:09:35;;;;;;;10.80;5.70;;;21.00;71.80;;;;;;215412;1276;25326;-58
2022/11/06 00:14:39;;;;;;;12.40;5.10;;;21.00;71.60;;;;;;215476;1283;25549;-58
2022/11/06 00:19:44;;;;;;;12.00;5.40;;;20.90;71.50;;;;;;215028;1283;22455;-57
2022/11/06 00:24:50;;;;;;;9.90;5.00;;;20.90;71.50;;;;;;218063;1282;22469;-58
2022/11/06 00:29:54;;;;;;;7.90;5.10;;;20.90;71.60;;;;;;215315;1283;22577;-58
2022/11/06 00:34:58;;;;;;;10.90;5.30;;;20.90;71.20;;;;;;215513;1277;25295;-58
2022/11/06 00:40:02;;;;;;;9.40;5.50;;;20.80;71.20;;;;;;215579;1292;25496;-58
2022/11/06 00:45:06;;;;;;;8.50;4.80;;;20.80;71.20;;;;;;215501;1277;22458;-57
2022/11/06 00:50:10;;;;;;;11.80;5.00;;;20.80;71.70;;;;;;215251;1288;25218;-58
2022/11/06 00:55:14;;;;;;;8.90;5.00;;;20.70;71.20;;;;;;215224;1297;25216;-58
2022/11/06 01:00:19;;;;;;;10.00;4.60;;;20.70;71.10;;;;;;217457;1281;25395;-57
2022/11/06 01:05:23;;;;;;;7.40;4.70;;;20.70;71.10;;;;;;215106;1291;22463;-58
2022/11/06 01:10:27;;;;;;;7.80;4.60;;;20.70;71.00;;;;;;214880;1275;24282;-58
2022/11/06 01:15:35;;;;;;;9.10;4.60;;;20.70;71.00;;;;;;215528;1279;25289;-59
2022/11/06 01:20:38;;;;;;;7.80;4.80;;;21.00;70.50;;;;;;215214;1275;23721;-58
2022/11/06 01:25:42;;;;;;;8.30;5.10;;;21.30;70.20;;;;;;215109;1286;25330;-59
2022/11/06 01:30:46;;;;;;;8.00;4.20;;;21.50;69.40;;;;;;215298;1280;23529;-57
2022/11/06 01:35:51;;;;;;;9.60;4.80;;;21.60;69.00;;;;;;215034;1285;25397;-58
2022/11/06 01:40:55;;;;;;;10.60;4.30;;;21.80;68.80;;;;;;215543;1291;22467;-58
2022/11/06 01:45:59;;;;;;;7.90;4.60;;;21.90;69.00;;;;;;215178;1280;22461;-58
2022/11/06 01:51:05;;;;;;;7.30;4.70;;;21.90;68.60;;;;;;215062;1276;24238;-58
2022/11/06 01:56:12;;;;;;;7.20;4.30;;;21.90;68.20;;;;;;215041;1288;22440;-58
2022/11/06 02:01:16;;;;;;;7.00;4.50;;;21.90;68.50;;;;;;215457;1282;25239;-59
2022/11/06 02:06:20;;;;;;;8.60;4.50;;;22.00;67.90;;;;;;215357;1283;23653;-57
2022/11/06 02:11:27;;;;;;;9.20;4.60;;;22.10;67.70;;;;;;215591;1285;22548;-58
2022/11/06 02:16:51;;;;;;;7.10;4.90;;;22.10;67.90;;;;;;215402;1283;25661;-57
2022/11/06 02:22:23;;;;;;;7.00;4.40;;;22.20;67.40;;;;;;215204;1299;25240;-58
2022/11/06 02:27:31;;;;;;;8.80;5.00;;;22.20;67.00;;;;;;215183;1300;25311;-59
2022/11/06 02:32:47;;;;;;;7.00;4.30;;;22.30;67.00;;;;;;215419;1278;25582;-59
2022/11/06 02:37:56;;;;;;;7.00;4.60;;;22.30;66.50;;;;;;215357;1275;22706;-58
2022/11/06 02:43:05;;;;;;;7.90;4.60;;;22.30;66.30;;;;;;214864;1288;24806;-58
2022/11/06 02:48:11;;;;;;;7.00;4.30;;;22.30;66.20;;;;;;215119;1289;25373;-58
2022/11/06 02:53:19;;;;;;;6.70;4.10;;;22.40;66.10;;;;;;215424;1287;24345;-59
2022/11/06 02:58:57;;;;;;;8.20;4.60;;;22.30;66.00;;;;;;215361;1283;26438;-57
2022/11/06 03:04:04;;;;;;;7.40;4.60;;;22.40;66.10;;;;;;215296;1297;25327;-60
2022/11/06 03:09:14;;;;;;;8.40;4.50;;;22.40;66.00;;;;;;215507;1281;22455;-59
2022/11/06 03:14:28;;;;;;;6.40;4.30;;;22.40;66.30;;;;;;215337;1276;24246;-58
2022/11/06 03:19:41;;;;;;;7.70;4.60;;;22.40;66.20;;;;;;215285;1277;22582;-60
2022/11/06 03:24:45;;;;;;;7.20;4.50;;;22.30;66.00;;;;;;215363;1275;24144;-57
2022/11/06 03:29:59;;;;;;;6.30;4.50;;;22.30;66.20;;;;;;215597;1283;26771;-58
2022/11/06 03:35:08;;;;;;;6.70;4.50;;;22.20;66.10;;;;;;215441;1281;22521;-59
2022/11/06 03:40:16;;;;;;;6.70;4.50;;;22.10;66.20;;;;;;215486;1277;22459;-58
2022/11/06 03:45:23;;;;;;;6.10;4.20;;;22.00;66.40;;;;;;215425;1276;22592;-58
2022/11/06 03:50:31;;;;;;;7.70;4.40;;;21.90;66.50;;;;;;215498;1278;24256;-58
2022/11/06 03:55:42;;;;;;;7.90;4.50;;;21.90;66.70;;;;;;215430;1281;24250;-58
2022/11/06 04:00:47;;;;;;;8.20;4.70;;;21.90;66.80;;;;;;215056;1280;26848;-58
2022/11/06 04:05:55;;;;;;;6.30;4.50;;;21.80;67.10;;;;;;215103;1285;24256;-58
2022/11/06 04:16:36;;;;;;;8.50;4.70;;;21.60;67.30;;;;;;214991;1275;22476;-57
2022/11/06 04:21:49;;;;;;;6.50;4.80;;;21.60;67.30;;;;;;215024;1299;25341;-58
2022/11/06 04:27:10;;;;;;;7.70;4.90;;;21.50;67.50;;;;;;215006;1288;23879;-59
2022/11/06 04:32:23;;;;;;;;;;;21.50;67.50;;;;;;215125;1283;22430;-59
2022/11/06 04:38:01;;;;;;;6.40;4.60;;;21.40;67.60;;;;;;215173;1276;25221;-58
2022/11/06 04:43:13;;;;;;;6.70;4.40;;;21.40;67.60;;;;;;215002;1295;25252;-57
2022/11/06 04:48:18;;;;;;;7.00;4.80;;;21.30;67.60;;;;;;215258;1276;25255;-56
2022/11/06 04:53:23;;;;;;;6.50;4.50;;;21.30;67.70;;;;;;215305;1275;22473;-58
2022/11/06 04:58:29;;;;;;;8.60;4.50;;;21.20;68.10;;;;;;215335;1276;25522;-58
2022/11/06 05:03:36;;;;;;;7.90;4.30;;;21.20;67.80;;;;;;215532;1283;22461;-58
2022/11/06 05:08:41;;;;;;;7.90;4.60;;;21.20;68.20;;;;;;215491;1275;24233;-59
2022/11/06 05:13:45;;;;;;;7.50;4.80;;;21.20;68.10;;;;;;215094;1282;25361;-59
2022/11/06 05:18:49;;;;;;;6.30;4.60;;;21.10;68.00;;;;;;215446;1277;25368;-59
2022/11/06 05:23:53;;;;;;;6.10;4.10;;;21.10;68.10;;;;;;215173;1286;25459;-58
2022/11/06 05:28:56;;;;;;;6.80;4.20;;;21.00;68.20;;;;;;215447;1289;24173;-59
2022/11/06 05:34:00;;;;;;;7.50;4.90;;;20.90;68.70;;;;;;215468;1297;23885;-59
2022/11/06 05:39:04;;;;;;;7.80;4.30;;;20.90;68.20;;;;;;215360;1287;25255;-58
2022/11/06 05:44:08;;;;;;;6.60;4.30;;;20.90;68.30;;;;;;215487;1283;24243;-58
2022/11/06 05:49:12;;;;;;;7.60;4.80;;;20.80;68.30;;;;;;215437;1277;22476;-58
2022/11/06 05:54:17;;;;;;;6.90;4.30;;;20.80;68.60;;;;;;215494;1297;26581;-58
2022/11/06 05:59:20;;;;;;;7.90;4.90;;;20.80;68.20;;;;;;215425;1282;22587;-57
2022/11/06 06:04:24;;;;;;;6.60;4.20;;;20.80;68.30;;;;;;215484;1276;25498;-57
2022/11/06 06:09:31;;;;;;;6.70;4.40;;;21.00;68.00;;;;;;215331;1283;200609;-58
2022/11/06 06:14:35;;;;;;;7.20;4.00;;;21.30;67.40;;;;;;215423;1275;22464;-58
2022/11/06 06:19:39;;;;;;;5.90;4.40;;;21.50;66.70;;;;;;215570;1292;24342;-60
2022/11/06 06:24:43;;;;;;;6.90;4.70;;;21.60;66.30;;;;;;215527;1275;25621;-58
2022/11/06 06:29:47;;;;;;;8.20;4.40;;;21.70;66.00;;;;;;215494;1285;26583;-59
2022/11/06 06:34:51;;;;;;;5.80;3.90;;;21.80;66.30;;;;;;215467;1276;25427;-59
2022/11/06 06:39:54;;;;;;;9.40;4.70;;;21.80;66.10;;;;;;215471;1276;23879;-59
2022/11/06 06:44:58;;;;;;;7.70;4.20;;;21.90;65.40;;;;;;215492;1283;26621;-59
2022/11/06 06:50:03;;;;;;;5.70;4.00;;;22.00;65.50;;;;;;215493;1276;24176;-58
2022/11/06 06:55:07;;;;;;;5.80;4.40;;;22.00;65.80;;;;;;215671;1277;22475;-58
2022/11/06 07:00:11;;;;;;;9.10;4.10;;;22.10;64.80;;;;;;215489;1285;22481;-58
2022/11/06 07:05:15;;;;;;;9.50;4.40;;;22.10;64.90;;;;;;215478;1276;22523;-59
2022/11/06 07:10:21;;;;;;;8.00;4.80;;;22.20;65.30;;;;;;215452;1276;24822;-58
2022/11/06 07:15:25;;;;;;;6.50;4.40;;;22.20;64.60;;;;;;215497;1278;25906;-59
2022/11/06 07:20:29;;;;;;;6.90;4.60;;;22.20;64.40;;;;;;215551;1297;25330;-61
2022/11/06 07:25:35;;;;;;;7.70;4.80;;;22.30;64.30;;;;;;215250;1279;24071;-59
2022/11/06 07:30:39;;;;;;;8.70;4.20;;;22.30;64.30;;;;;;215508;1276;24011;-59
2022/11/06 07:35:43;;;;;;;5.90;4.30;;;22.20;64.40;;;;;;215443;1276;25415;-58
2022/11/06 07:40:49;;;;;;;7.80;4.40;;;22.20;64.20;;;;;;215392;1283;24186;-60
2022/11/06 07:46:02;;;;;;;11.20;4.70;;;22.30;64.40;;;;;;215446;1276;23790;-58
2022/11/06 07:51:10;;;;;;;14.50;5.20;;;22.40;64.30;;;;;;215457;1275;24221;-60
2022/11/06 07:56:16;;;;;;;17.80;4.50;;;22.50;64.60;;;;;;215487;1279;24253;-60
2022/11/06 08:01:22;;;;;;;13.10;5.40;;;22.60;64.80;;;;;;215093;1276;22990;-62
2022/11/06 08:06:52;;;;;;;12.60;4.60;;;22.50;64.90;;;;;;215251;1279;22468;-59
2022/11/06 08:11:58;;;;;;;9.90;4.30;;;22.50;65.90;;;;;;214983;1292;25379;-57
2022/11/06 08:17:10;;;;;;;22.30;5.80;;;22.40;65.70;;;;;;215374;1276;25475;-58
2022/11/06 08:22:26;;;;;;;12.40;4.90;;;22.30;66.70;;;;;;215114;1288;22517;-58
2022/11/06 08:27:30;;;;;;;10.60;5.10;;;22.20;68.30;;;;;;215042;1286;24495;-59
2022/11/06 08:32:36;;;;;;;9.90;5.20;;;22.10;68.60;;;;;;214891;1277;25407;-59
2022/11/06 08:37:46;;;;;;;14.80;5.20;;;22.10;68.60;;;;;;215076;1277;22870;-60
2022/11/06 08:42:49;;;;;;;11.10;4.60;;;22.00;68.50;;;;;;215085;1276;22515;-60
2022/11/06 08:47:53;;;;;;;8.80;4.30;;;22.10;68.70;;;;;;215112;1277;22472;-57
2022/11/06 08:53:17;;;;;;;10.30;4.70;;;22.10;68.00;;;;;;215200;1276;22452;-57
2022/11/06 08:58:59;;;;;;;9.70;5.30;;;22.10;68.30;;;;;;215233;1277;22471;-57
2022/11/06 09:04:13;;;;;;;7.90;4.60;;;22.10;68.00;;;;;;215466;1269;24230;-58
2022/11/06 09:09:16;;;;;;;10.10;5.20;;;22.00;68.00;;;;;;215547;1272;24288;-58
2022/11/06 09:14:20;;;;;;;14.90;5.20;;;22.00;67.90;;;;;;215452;1276;23738;-60
2022/11/06 09:19:25;;;;;;;10.00;5.20;;;22.00;67.60;;;;;;215170;1283;24245;-58
2022/11/06 09:24:42;;;;;;;11.80;5.60;;;22.00;66.70;;;;;;215541;1288;23889;-60
2022/11/06 09:30:14;;;;;;;10.70;4.90;;;22.00;66.70;;;;;;215331;1289;24020;-59
2022/11/06 09:35:25;;;;;;;10.00;5.40;;;22.00;66.60;;;;;;215435;1275;22473;-59
2022/11/06 09:40:41;;;;;;;9.80;4.80;;;22.00;66.40;;;;;;215448;1291;22541;-59
2022/11/06 09:45:53;;;;;;;9.60;5.00;;;22.00;66.40;;;;;;215314;1281;23037;-58
2022/11/06 09:51:48;;;;;;;11.40;5.20;;;22.00;66.40;;;;;;215483;1268;25349;-60
2022/11/06 09:57:02;;;;;;;9.80;4.90;;;22.00;66.10;;;;;;214685;1300;25333;-57
2022/11/06 10:02:31;;;;;;;9.00;4.60;;;22.10;66.10;;;;;;215217;1280;22525;-57
2022/11/06 10:07:51;;;;;;;8.20;5.00;;;22.10;66.30;;;;;;215251;1272;22532;-58
2022/11/06 10:13:14;;;;;;;10.90;5.10;;;22.10;66.10;;;;;;215490;1290;22617;-58
2022/11/06 10:18:39;;;;;;;7.80;5.00;;;22.20;65.60;;;;;;215462;1293;22699;-58
2022/11/06 10:24:07;;;;;;;9.50;4.50;;;22.20;65.50;;;;;;215182;1276;22480;-57
2022/11/06 10:29:34;;;;;;;8.50;4.80;;;22.20;65.30;;;;;;215584;1269;22521;-59
2022/11/06 10:35:23;;;;;;;9.20;4.90;;;22.30;64.70;;;;;;214689;1272;25371;-59
2022/11/06 10:40:31;;;;;;;8.70;4.70;;;22.30;64.90;;;;;;214693;1280;25745;-57
2022/11/06 10:45:47;;;;;;;8.80;4.70;;;22.30;64.80;;;;;;214733;1294;22468;-59
2022/11/06 10:51:24;;;;;;;9.30;4.80;;;22.30;64.60;;;;;;214712;1300;25373;-59
2022/11/06 10:56:58;;;;;;;7.30;4.60;;;22.30;64.50;;;;;;215294;1279;22454;-58
2022/11/06 11:02:32;;;;;;;6.60;3.40;;;22.40;64.50;;;;;;215360;1283;22917;-58
2022/11/06 11:07:39;;;;;;;6.90;4.40;;;22.30;64.40;;;;;;215318;1276;22472;-58
2022/11/06 11:12:44;;;;;;;6.80;4.20;;;22.40;64.20;;;;;;215571;1276;24012;-58
2022/11/06 11:18:33;;;;;;;5.80;3.60;;;22.40;64.10;;;;;;215308;1299;25544;-58
2022/11/06 11:24:02;;;;;;;6.60;4.20;;;22.40;64.10;;;;;;214601;1278;24197;-59
2022/11/06 11:29:34;;;;;;;6.00;3.90;;;22.40;63.90;;;;;;215487;1282;22493;-58
2022/11/06 11:34:54;;;;;;;8.20;4.10;;;22.40;64.20;;;;;;215187;1279;23884;-57
2022/11/06 11:40:35;;;;;;;6.00;3.50;;;22.40;63.70;;;;;;215366;1268;23878;-58
2022/11/06 11:45:41;;;;;;;6.20;4.10;;;22.40;63.60;;;;;;215074;1285;22830;-57
2022/11/06 11:50:51;;;;;;;6.20;3.30;;;22.40;63.60;;;;;;214980;1283;22683;-57
2022/11/06 11:56:19;;;;;;;5.60;3.50;;;22.40;63.50;;;;;;215352;1278;22532;-58
2022/11/06 12:01:44;;;;;;;6.00;3.30;;;22.40;63.90;;;;;;215056;1286;24188;-58
2022/11/06 12:07:20;;;;;;;5.20;3.30;;;22.40;63.40;;;;;;215246;1288;25519;-58
2022/11/06 12:12:32;;;;;;;7.10;3.60;;;22.40;63.40;;;;;;215028;1268;22487;-59
2022/11/06 12:17:41;;;;;;;5.70;3.70;;;22.40;63.30;;;;;;215104;1286;22460;-59
2022/11/06 12:23:10;;;;;;;4.80;3.50;;;22.50;63.60;;;;;;215043;1284;22520;-58
2022/11/06 12:28:17;;;;;;;4.20;2.80;;;22.40;63.10;;;;;;215020;1276;22706;-58
2022/11/06 12:33:27;;;;;;;6.70;3.40;;;22.50;63.00;;;;;;215096;1288;24253;-57
2022/11/06 12:39:05;;;;;;;4.60;3.20;;;22.40;63.00;;;;;;215095;1276;25540;-58
2022/11/06 12:44:18;;;;;;;5.00;3.10;;;22.40;63.00;;;;;;215008;1269;25635;-57
2022/11/06 12:50:10;;;;;;;6.00;3.30;;;22.40;63.00;;;;;;215160;1286;24286;-59
2022/11/06 12:55:35;;;;;;;5.00;3.00;;;22.40;63.10;;;;;;215002;1269;25313;-57
2022/11/06 13:01:24;;;;;;;6.50;3.40;;;22.40;63.00;;;;;;215127;1276;25403;-59
2022/11/06 13:06:59;;;;;;;6.50;3.10;;;22.40;62.90;;;;;;215263;1276;24324;-58
2022/11/06 13:12:47;;;;;;;4.60;2.60;;;22.40;62.90;;;;;;215215;1282;24176;-58
2022/11/06 13:18:28;;;;;;;5.40;2.90;;;22.30;62.90;;;;;;215118;1276;24320;-59
2022/11/06 13:23:58;;;;;;;4.00;2.60;;;22.30;62.90;;;;;;215495;1283;25588;-58
2022/11/06 13:29:10;;;;;;;4.70;3.10;;;22.30;62.90;;;;;;215321;1275;26663;-58
2022/11/06 13:34:21;;;;;;;4.70;2.70;;;22.30;62.90;;;;;;215395;1276;25575;-59
2022/11/06 13:39:36;;;;;;;3.80;2.60;;;22.20;62.80;;;;;;215423;1298;25336;-60
2022/11/06 13:44:44;;;;;;;4.90;2.90;;;22.20;62.70;;;;;;215219;1286;22482;-58
2022/11/06 13:50:26;;;;;;;5.90;2.80;;;22.20;62.70;;;;;;215344;1276;23848;-59
2022/11/06 13:55:52;;;;;;;4.70;2.90;;;22.20;62.60;;;;;;215195;1276;25295;-58
2022/11/06 14:01:23;;;;;;;3.90;2.60;;;22.20;62.50;;;;;;215354;1276;24022;-58
2022/11/06 14:06:31;;;;;;;5.20;2.90;;;22.10;62.60;;;;;;215359;1285;22451;-58
2022/11/06 14:11:44;;;;;;;4.50;2.60;;;22.10;63.00;;;;;;215409;1277;26593;-58
2022/11/06 14:17:13;;;;;;;4.60;2.60;;;22.10;62.70;;;;;;215098;1278;24389;-57
2022/11/06 14:22:37;;;;;;;4.70;2.70;;;22.00;62.80;;;;;;215370;1276;25507;-60
2022/11/06 14:27:48;;;;;;;4.10;2.40;;;21.90;62.90;;;;;;215484;1281;22533;-57
2022/11/06 14:32:56;;;;;;;3.70;2.50;;;21.90;62.90;;;;;;215386;1269;23496;-58
2022/11/06 14:38:46;;;;;;;4.90;2.80;;;21.80;62.80;;;;;;215151;1297;25431;-59
2022/11/06 14:43:57;;;;;;;6.20;2.90;;;21.80;62.90;;;;;;215510;1286;25309;-58
2022/11/06 14:49:24;;;;;;;4.00;2.30;;;21.80;62.80;;;;;;215425;1276;22716;-58
2022/11/06 14:54:29;;;;;;;4.10;2.70;;;21.80;63.40;;;;;;215406;1279;25911;-58
2022/11/06 14:59:44;;;;;;;5.00;2.90;;;21.80;62.70;;;;;;215456;1276;25299;-58
2022/11/06 15:04:57;;;;;;;5.30;2.50;;;21.80;62.80;;;;;;215424;1276;24481;-58
2022/11/06 15:10:04;;;;;;;3.90;2.50;;;21.70;62.80;;;;;;215490;1282;22716;-58
2022/11/06 15:15:17;;;;;;;4.90;2.30;;;21.70;62.70;;;;;;215415;1276;22703;-58
2022/11/06 15:20:29;;;;;;;4.70;2.50;;;21.70;62.70;;;;;;215255;1278;25906;-57
2022/11/06 15:25:40;;;;;;;3.60;2.30;;;21.70;62.70;;;;;;215195;1272;22620;-59
2022/11/06 15:30:50;;;;;;;4.40;2.70;;;21.70;62.70;;;;;;215492;1276;22523;-57
2022/11/06 15:35:57;;;;;;;3.80;2.20;;;21.60;63.00;;;;;;215527;1276;26483;-58
2022/11/06 15:41:01;;;;;;;3.30;2.40;;;21.70;62.60;;;;;;215436;1275;25366;-57
2022/11/06 15:46:24;;;;;;;4.10;2.30;;;21.70;62.70;;;;;;215462;1300;22528;-58
2022/11/06 15:51:28;;;;;;;4.10;2.60;;;21.60;63.00;;;;;;215215;1275;23183;-57
2022/11/06 15:56:34;;;;;;;4.90;2.80;;;21.60;62.60;;;;;;215519;1283;24775;-57
2022/11/06 16:01:38;;;;;;;4.40;2.50;;;21.50;62.70;;;;;;215481;1269;24227;-58
2022/11/06 16:06:43;;;;;;;4.90;2.80;;;21.50;62.60;;;;;;215556;1276;24254;-58
2022/11/06 16:11:50;;;;;;;4.70;3.00;;;21.50;62.70;;;;;;215547;1282;24265;-58
2022/11/06 16:16:55;;;;;;;4.40;2.90;;;21.40;62.60;;;;;;215539;1281;22857;-58
2022/11/06 16:22:06;;;;;;;4.40;2.80;;;21.40;62.50;;;;;;215448;1276;22577;-58
2022/11/06 16:27:11;;;;;;;4.70;3.00;;;21.40;62.00;;;;;;215566;1275;25195;-59
2022/11/06 16:32:20;;;;;;;5.40;3.00;;;21.40;62.30;;;;;;215538;1276;25353;-58
2022/11/06 16:37:28;;;;;;;6.60;3.50;;;21.30;62.30;;;;;;215512;1287;22473;-58
2022/11/06 16:43:02;;;;;;;4.90;3.20;;;21.30;62.30;;;;;;215479;1280;22471;-58
2022/11/06 16:48:06;;;;;;;5.90;3.50;;;21.20;61.60;;;;;;215442;1272;25652;-59
2022/11/06 16:53:28;;;;;;;5.30;3.40;;;21.20;61.90;;;;;;215588;1276;23280;-59
2022/11/06 16:59:07;;;;;;;5.90;3.90;;;21.20;61.80;;;;;;215403;1292;23845;-59
2022/11/06 17:04:30;;;;;;;6.60;3.20;;;21.20;61.70;;;;;;215531;1275;24228;-58
2022/11/06 17:09:41;;;;;;;5.60;3.60;;;21.10;61.50;;;;;;215523;1300;24175;-59
2022/11/06 17:15:18;;;;;;;6.40;3.30;;;21.10;61.40;;;;;;215554;1282;22459;-59
2022/11/06 17:20:29;;;;;;;5.30;3.40;;;21.10;61.80;;;;;;215467;1275;23870;-57
2022/11/06 17:25:37;;;;;;;6.20;3.90;;;21.00;61.40;;;;;;215579;1276;23872;-57
2022/11/06 17:30:46;;;;;;;5.70;3.70;;;21.00;61.20;;;;;;215291;1292;25638;-57
2022/11/06 17:36:05;;;;;;;5.90;3.60;;;21.00;61.00;;;;;;215525;1283;23844;-57
2022/11/06 17:41:50;;;;;;;5.70;3.90;;;21.00;61.00;;;;;;215442;1283;26451;-62
2022/11/06 17:46:55;;;;;;;5.90;4.40;;;20.90;61.10;;;;;;215285;1297;22469;-64
2022/11/06 17:52:20;;;;;;;;;;;;;;;;;;;;;
2022/11/06 17:57:27;;;;;;;7.90;4.70;;;20.90;60.80;;;;;;215597;1280;24343;-62
2022/11/06 18:02:41;;;;;;;8.20;5.10;;;20.80;60.70;;;;;;215554;1282;23672;-60
2022/11/06 18:08:04;;;;;;;7.80;4.80;;;20.80;60.70;;;;;;215504;1297;25415;-61
2022/11/06 18:13:22;;;;;;;8.20;5.70;;;20.80;60.50;;;;;;213494;1282;2754317;-63
2022/11/06 18:18:27;;;;;;;8.10;5.10;;;20.90;60.20;;;;;;215490;1275;22467;-61
2022/11/06 18:23:47;;;;;;;7.50;4.90;;;21.10;59.80;;;;;;215472;1298;25308;-61
2022/11/06 18:29:15;;;;;;;7.60;5.00;;;21.40;58.80;;;;;;215158;1293;26592;-61
2022/11/06 18:34:50;;;;;;;9.80;5.80;;;21.50;58.10;;;;;;215494;1276;24390;-60
2022/11/06 18:40:09;;;;;;;8.70;4.80;;;21.70;57.70;;;;;;215506;1278;25297;-60
2022/11/06 18:45:13;;;;;;;7.10;4.80;;;21.80;57.30;;;;;;215489;1269;23191;-60
2022/11/06 18:50:17;;;;;;;7.20;5.20;;;21.80;57.20;;;;;;215509;1282;25310;-60
2022/11/06 18:55:32;;;;;;;7.70;5.10;;;21.90;57.00;;;;;;215518;1282;24411;-60
2022/11/06 19:00:47;;;;;;;8.20;5.70;;;21.90;56.80;;;;;;215435;1277;22598;-60
2022/11/06 19:05:56;;;;;;;9.40;6.00;;;22.00;56.60;;;;;;215466;1276;23872;-58
2022/11/06 19:11:04;;;;;;;9.10;5.40;;;22.00;56.50;;;;;;215369;1276;25322;-62
2022/11/06 19:16:20;;;;;;;8.40;5.00;;;21.90;56.80;;;;;;215429;1277;23885;-61
2022/11/06 19:21:51;;;;;;;7.50;4.80;;;21.90;57.00;;;;;;214954;1283;22473;-62
2022/11/06 19:27:07;;;;;;;10.40;5.30;;;21.90;57.70;;;;;;215313;1294;22719;-60
2022/11/06 19:32:23;;;;;;;8.00;5.00;;;21.90;57.30;;;;;;215295;1275;24454;-61
2022/11/06 19:37:35;;;;;;;8.80;5.40;;;21.70;57.70;;;;;;215384;1275;22692;-62
2022/11/06 19:42:50;;;;;;;9.30;4.90;;;21.60;58.20;;;;;;215325;1283;22462;-62
2022/11/06 19:48:12;;;;;;;8.20;5.00;;;21.50;58.60;;;;;;215212;1276;24019;-60
2022/11/06 19:53:24;;;;;;;7.90;4.40;;;21.50;58.70;;;;;;215296;1275;22615;-62
2022/11/06 19:58:33;;;;;;;7.40;4.20;;;21.60;58.70;;;;;;215291;1276;22449;-61
2022/11/06 20:04:01;;;;;;;10.10;4.90;;;21.60;58.60;;;;;;215352;1292;24320;-61
2022/11/06 20:09:17;;;;;;;8.20;5.20;;;21.70;58.70;;;;;;215232;1275;24334;-63
2022/11/06 20:14:28;;;;;;;9.20;5.20;;;21.80;58.20;;;;;;215179;1276;24554;-61
2022/11/06 20:19:37;;;;;;;7.30;5.20;;;21.90;57.70;;;;;;215377;1277;22813;-61
2022/11/06 20:24:53;;;;;;;8.30;4.90;;;22.10;57.30;;;;;;215243;1277;24228;-61
2022/11/06 20:30:06;;;;;;;8.90;5.50;;;22.20;57.00;;;;;;215150;1283;22458;-62
2022/11/06 20:35:22;;;;;;;10.40;6.40;;;22.30;57.10;;;;;;215286;1283;24420;-64
2022/11/06 20:40:32;;;;;;;10.10;6.40;;;22.30;56.60;;;;;;215344;1281;22492;-62
2022/11/06 20:45:42;;;;;;;10.70;6.30;;;22.30;57.10;;;;;;215428;1297;23359;-62
2022/11/06 20:51:14;;;;;;;12.20;6.30;;;22.20;56.50;;;;;;215310;1283;22474;-61
2022/11/06 20:57:01;;;;;;;15.40;6.80;;;22.20;56.60;;;;;;215171;1284;23860;-61
2022/11/06 21:02:10;;;;;;;12.20;6.00;;;22.00;58.20;;;;;;215133;1276;23863;-63
2022/11/06 21:07:21;;;;;;;10.20;5.90;;;21.90;58.70;;;;;;215395;1281;24272;-63
2022/11/06 21:12:29;;;;;;;10.60;6.20;;;21.80;59.80;;;;;;215339;1276;22495;-62
2022/11/06 21:17:34;;;;;;;12.80;6.10;;;21.80;60.30;;;;;;215328;1276;25378;-62
2022/11/06 21:22:40;;;;;;;13.10;5.90;;;21.70;60.30;;;;;;215350;1275;23058;-63
2022/11/06 21:27:43;;;;;;;10.50;6.10;;;21.60;60.60;;;;;;215233;1288;22506;-62
2022/11/06 21:32:51;;;;;;;12.70;6.50;;;21.60;61.30;;;;;;215202;1282;23863;-62
2022/11/06 21:38:06;;;;;;;10.20;5.60;;;21.60;61.10;;;;;;215148;1275;22562;-63
2022/11/06 21:43:10;;;;;;;9.00;5.60;;;21.60;61.30;;;;;;215239;1275;22796;-62
2022/11/06 21:48:20;;;;;;;20.80;9.90;;;21.50;61.50;;;;;;215488;1275;24320;-62
2022/11/06 21:59:19;;;;;;;31.20;13.30;;;21.50;61.90;;;;;;215264;1283;23834;-63
2022/11/06 22:04:38;;;;;;;28.40;12.00;;;21.50;62.00;;;;;;215184;1281;25751;-62
2022/11/06 22:09:51;;;;;;;23.60;11.60;;;21.40;62.10;;;;;;215151;1283;22482;-62
2022/11/06 22:14:57;;;;;;;24.80;10.90;;;21.40;62.20;;;;;;215356;1288;22450;-63
2022/11/06 22:20:02;;;;;;;22.60;11.30;;;21.40;62.20;;;;;;215254;1282;22577;-63
2022/11/06 22:25:11;;;;;;;21.60;10.80;;;21.40;62.20;;;;;;215068;1275;26488;-63
2022/11/06 22:30:25;;;;;;;29.50;12.70;;;21.30;62.20;;;;;;215224;1287;24370;-64
2022/11/06 22:35:31;;;;;;;22.80;10.80;;;21.40;62.20;;;;;;215327;1296;25717;-62
2022/11/06 22:40:35;;;;;;;24.20;10.70;;;21.30;62.20;;;;;;215357;1278;25051;-63
2022/11/06 22:45:39;;;;;;;20.20;10.00;;;21.30;62.20;;;;;;215593;1289;22583;-62
2022/11/06 22:50:44;;;;;;;21.20;9.20;;;21.30;62.30;;;;;;215309;1275;22450;-62
2022/11/06 22:55:54;;;;;;;19.00;9.20;;;21.30;62.80;;;;;;215496;1283;22471;-62
2022/11/06 23:01:01;;;;;;;22.00;9.60;;;21.20;63.00;;;;;;215402;1282;25320;-62
2022/11/06 23:06:16;;;;;;;17.00;9.40;;;21.20;62.50;;;;;;215136;1283;24011;-62
2022/11/06 23:11:22;;;;;;;16.90;8.30;;;21.20;62.60;;;;;;215372;1280;24305;-63
2022/11/06 23:21:49;;;;;;;14.20;8.40;;;21.10;62.80;;;;;;215287;1292;22469;-62
2022/11/06 23:26:54;;;;;;;14.80;7.80;;;21.10;62.80;;;;;;215303;1286;24282;-61
2022/11/06 23:32:00;;;;;;;17.80;8.30;;;21.10;62.80;;;;;;215288;1282;24024;-59
2022/11/06 23:37:04;;;;;;;18.10;7.70;;;21.10;62.80;;;;;;215222;1285;22499;-63
2022/11/06 23:42:23;;;;;;;17.10;8.20;;;21.00;63.20;;;;;;215341;1281;24225;-63
2022/11/06 23:47:27;;;;;;;15.40;8.20;;;21.00;62.80;;;;;;215102;1289;22704;-62
2022/11/06 23:52:42;;;;;;;14.20;7.90;;;21.00;63.00;;;;;;215401;1275;25095;-61
2022/11/06 23:57:50;;;;;;;17.00;8.20;;;21.00;62.90;;;;;;215295;1283;22455;-61
